Time;durP1;ratioP1;P1;durP2;ratioP2;P2;SDS_P1;SDS_P2;PMS_P1;PMS_P2;Temp;Humidity;BMP_temperature;BMP_pressure;BME280_temperature;BME280_humidity;BME280_pressure;Samples;Min_cycle;Max_cycle;Signal;HPM_P1;HPM_P2
2022/02/22 00:04:49;;;;;;;6.70;2.30;;;;;;;3.91;88.98;98855.39;3474645;82;33426;-88
2022/02/22 00:09:50;;;;;;;7.97;2.13;;;;;;;3.93;89.20;98862.59;3460115;84;98649;-89
2022/02/22 00:14:51;;;;;;;5.67;2.10;;;;;;;3.95;89.14;98882.08;3460033;84;98251;-88
2022/02/22 00:19:51;;;;;;;8.80;2.40;;;;;;;3.97;89.21;98891.21;3459383;82;98715;-89
2022/02/22 00:24:52;;;;;;;8.73;2.20;;;;;;;3.98;89.32;98895.52;3465703;82;98668;-91
2022/02/22 00:29:54;;;;;;;6.30;1.80;;;;;;;3.99;89.43;98906.02;3443494;83;98766;-90
2022/02/22 00:34:55;;;;;;;7.72;2.20;;;;;;;3.99;89.58;98916.14;3458815;84;25853;-91
2022/02/22 00:39:55;;;;;;;8.23;2.37;;;;;;;4.01;89.57;98925.50;3418197;84;98817;-91
2022/02/22 00:44:56;;;;;;;8.77;1.97;;;;;;;4.03;89.71;98915.02;3451122;83;98528;-89
2022/02/22 00:49:57;;;;;;;7.00;2.40;;;;;;;4.04;89.71;98932.91;3429831;82;98507;-88
2022/02/22 00:54:58;;;;;;;8.83;2.13;;;;;;;4.06;89.85;98931.98;3424455;83;98815;-96
2022/02/22 00:59:59;;;;;;;7.92;2.37;;;;;;;4.09;90.01;98931.23;3411932;83;98879;-88
2022/02/22 01:05:00;;;;;;;10.87;2.60;;;;;;;4.11;89.99;98933.02;3426353;84;34333;-87
2022/02/22 01:10:03;;;;;;;9.60;2.57;;;;;;;4.13;90.26;98949.76;3418808;83;98802;-88
2022/02/22 01:15:05;;;;;;;11.33;2.40;;;;;;;4.16;90.66;98950.96;3424142;84;98648;-91
2022/02/22 01:20:09;;;;;;;10.77;2.60;;;;;;;4.15;90.70;98965.13;3428285;80;98602;-91
2022/02/22 01:25:11;;;;;;;9.67;2.60;;;;;;;4.16;91.02;98972.14;3437610;84;99035;-90
2022/02/22 01:30:12;;;;;;;6.72;2.22;;;;;;;4.17;91.24;98972.94;3421940;83;98824;-89
2022/02/22 01:35:13;;;;;;;8.50;2.77;;;;;;;4.16;91.29;98976.82;3412088;84;33194;-91
2022/02/22 01:40:14;;;;;;;8.30;2.60;;;;;;;4.19;91.48;98990.48;3425009;83;98528;-94
2022/02/22 01:45:17;;;;;;;6.33;2.57;;;;;;;4.17;91.68;98981.91;3422755;83;98736;-90
2022/02/22 01:50:18;;;;;;;7.35;2.20;;;;;;;4.17;91.79;99005.61;3392931;83;98528;-88
2022/02/22 01:55:19;;;;;;;10.87;2.40;;;;;;;4.19;91.63;99006.81;3401484;83;98612;-90
2022/02/22 02:00:20;;;;;;;9.30;2.17;;;;;;;4.21;91.80;99022.19;3397626;84;98998;-94
2022/02/22 02:05:22;;;;;;;8.10;2.40;;;;;;;4.21;91.83;99026.28;3402895;85;33407;-89
2022/02/22 02:10:23;;;;;;;8.63;2.00;;;;;;;4.23;92.07;99030.00;3392571;85;98445;-89
2022/02/22 02:15:25;;;;;;;9.27;1.97;;;;;;;4.24;91.86;99022.83;3411084;84;98534;-89
2022/02/22 02:20:25;;;;;;;10.37;2.20;;;;;;;4.26;91.98;99043.66;3373687;85;98712;-91
2022/02/22 02:25:26;;;;;;;8.17;2.00;;;;;;;4.28;92.34;99061.80;3404855;84;99081;-90
2022/02/22 02:30:28;;;;;;;9.33;2.00;;;;;;;4.28;92.04;99050.10;3398307;83;98880;-91
2022/02/22 02:35:31;;;;;;;12.23;2.53;;;;;;;4.29;92.17;99061.20;3409440;85;98954;-91
2022/02/22 02:40:31;;;;;;;12.10;2.30;;;;;;;4.30;92.26;99077.73;3395526;84;98229;-92
2022/02/22 02:45:33;;;;;;;7.20;2.33;;;;;;;4.29;92.42;99072.89;3416636;84;98832;-91
2022/02/22 02:50:35;;;;;;;8.17;1.43;;;;;;;4.30;92.53;99085.91;3420031;83;98719;-89
2022/02/22 02:55:36;;;;;;;9.30;2.57;;;;;;;4.32;92.76;99085.75;3430767;84;98719;-90
2022/02/22 03:00:37;;;;;;;7.70;2.17;;;;;;;4.32;92.97;99093.16;3425290;83;98804;-88
2022/02/22 03:05:38;;;;;;;9.40;1.90;;;;;;;4.36;93.07;99102.17;3425712;83;98802;-88
2022/02/22 03:10:39;;;;;;;12.63;2.67;;;;;;;4.39;92.92;99104.14;3424059;83;97836;-87
2022/02/22 03:15:40;;;;;;;8.67;1.83;;;;;;;4.42;92.97;99118.40;3424313;84;98770;-88
2022/02/22 03:20:40;;;;;;;8.87;1.67;;;;;;;4.44;93.09;99127.77;3419139;82;98605;-87
2022/02/22 03:25:41;;;;;;;7.40;2.03;;;;;;;4.46;93.10;99130.91;3424491;80;98889;-88
2022/02/22 03:30:42;;;;;;;7.62;1.66;;;;;;;4.49;93.07;99141.08;3420834;83;98725;-86
2022/02/22 03:35:43;;;;;;;7.70;1.92;;;;;;;4.51;93.68;99155.11;3433634;83;98847;-88
2022/02/22 03:40:44;;;;;;;10.77;1.87;;;;;;;4.54;93.39;99161.16;3420424;83;98275;-93
2022/02/22 03:45:46;;;;;;;6.27;1.93;;;;;;;4.55;93.37;99181.03;3430873;84;98772;-88
2022/02/22 03:50:48;;;;;;;7.87;1.53;;;;;;;4.58;93.34;99186.53;3433027;83;98545;-89
2022/02/22 03:55:49;;;;;;;9.40;2.57;;;;;;;4.57;93.35;99194.50;3436298;84;98689;-90
2022/02/22 04:00:50;;;;;;;8.00;1.70;;;;;;;4.57;93.50;99212.77;3431029;84;98806;-88
2022/02/22 04:05:51;;;;;;;10.97;1.80;;;;;;;4.59;93.66;99217.30;3437936;83;98799;-88
2022/02/22 04:10:52;;;;;;;6.83;1.67;;;;;;;4.47;93.82;99199.20;3435860;83;98040;-89
2022/02/22 04:15:53;;;;;;;8.30;1.70;;;;;;;4.59;93.97;99241.23;3446225;83;98603;-87
2022/02/22 04:20:54;;;;;;;8.60;2.17;;;;;;;4.60;93.93;99241.46;3435721;84;98301;-87
2022/02/22 04:25:55;;;;;;;8.63;1.87;;;;;;;4.62;94.27;99259.58;3444300;83;98722;-88
2022/02/22 04:30:56;;;;;;;14.30;2.70;;;;;;;4.63;94.15;99262.51;3416902;83;98667;-93
2022/02/22 04:35:56;;;;;;;11.17;2.07;;;;;;;4.67;94.23;99273.46;3441617;84;98828;-87
2022/02/22 04:40:57;;;;;;;9.80;2.73;;;;;;;4.69;94.44;99271.17;3435248;84;99814;-89
2022/02/22 04:45:58;;;;;;;9.03;1.63;;;;;;;4.70;94.82;99285.01;3452617;84;98523;-87
2022/02/22 04:50:59;;;;;;;13.27;2.37;;;;;;;4.71;94.82;99289.30;3450074;82;98315;-92
2022/02/22 04:56:00;;;;;;;51.43;15.90;;;;;;;4.70;95.64;99298.63;3456590;80;99134;-88
2022/02/22 05:01:01;;;;;;;16.13;3.67;;;;;;;4.66;95.36;99302.67;3450754;81;99095;-88
2022/02/22 05:06:02;;;;;;;12.60;2.13;;;;;;;4.59;95.22;99305.25;3458512;84;98929;-88
2022/02/22 05:11:03;;;;;;;10.70;2.50;;;;;;;4.54;95.34;99319.18;3455702;84;98148;-88
2022/02/22 05:16:05;;;;;;;12.30;2.40;;;;;;;4.47;95.57;99329.96;3451608;84;98781;-88
2022/02/22 05:21:06;;;;;;;8.27;2.67;;;;;;;4.45;95.94;99341.01;3456914;82;98409;-88
2022/02/22 05:26:11;;;;;;;15.80;3.27;;;;;;;4.43;96.25;99348.77;3457517;84;98776;-87
2022/02/22 05:31:13;;;;;;;5.78;1.87;;;;;;;4.42;96.82;99364.31;3464089;82;98799;-86
2022/02/22 05:36:14;;;;;;;13.33;2.57;;;;;;;4.43;97.29;99365.11;3459502;84;98382;-89
2022/02/22 05:41:17;;;;;;;11.43;1.93;;;;;;;4.43;97.46;99381.45;3453015;84;98122;-88
2022/02/22 05:46:19;;;;;;;36.63;10.47;;;;;;;4.42;97.61;99387.46;3453642;83;98009;-87
2022/02/22 05:51:20;;;;;;;17.12;3.80;;;;;;;4.46;97.49;99401.14;3420129;81;98619;-86
2022/02/22 05:56:20;;;;;;;17.97;3.57;;;;;;;4.48;97.51;99403.72;3426683;83;98964;-88
2022/02/22 06:01:21;;;;;;;10.37;3.10;;;;;;;4.50;97.37;99420.52;3421083;83;98911;-89
2022/02/22 06:06:22;;;;;;;15.23;2.90;;;;;;;4.50;97.32;99430.05;3366078;86;98589;-87
2022/02/22 06:11:23;;;;;;;9.37;2.93;;;;;;;4.48;97.28;99428.23;3424828;83;98050;-90
2022/02/22 06:16:24;;;;;;;9.37;2.03;;;;;;;4.48;97.35;99450.03;3432970;84;98486;-90
2022/02/22 06:21:25;;;;;;;13.90;3.73;;;;;;;4.44;97.44;99459.30;3420557;83;98527;-89
2022/02/22 06:26:26;;;;;;;10.90;2.60;;;;;;;4.40;98.12;99476.94;3428561;83;98796;-86
2022/02/22 06:31:26;;;;;;;12.60;3.10;;;;;;;4.40;98.53;99474.77;3422048;81;99023;-88
2022/02/22 06:36:27;;;;;;;29.83;9.40;;;;;;;4.46;98.83;99485.03;3423287;81;98988;-90
2022/02/22 06:41:28;;;;;;;19.00;3.70;;;;;;;4.52;99.25;99499.94;3433191;83;98909;-89
2022/02/22 06:46:29;;;;;;;15.47;4.87;;;;;;;4.59;99.58;99505.52;3429579;82;33531;-91
2022/02/22 06:51:30;;;;;;;9.87;2.87;;;;;;;4.63;99.97;99499.57;3499080;83;98703;-91
2022/02/22 06:56:31;;;;;;;12.00;3.37;;;;;;;4.67;100.00;99507.25;3506452;82;98747;-91
2022/02/22 07:01:32;;;;;;;11.77;3.03;;;;;;;4.73;100.00;99517.27;3491570;83;99076;-88
2022/02/22 07:06:36;;;;;;;14.03;2.80;;;;;;;4.78;99.80;99525.96;3505696;83;98799;-91
2022/02/22 07:11:37;;;;;;;11.17;2.80;;;;;;;4.83;99.68;99529.76;3504554;82;99004;-90
2022/02/22 07:16:37;;;;;;;7.93;2.30;;;;;;;4.92;99.40;99529.53;3508977;82;32555;-88
2022/02/22 07:21:38;;;;;;;9.50;2.97;;;;;;;5.05;99.26;99543.20;3496091;83;98381;-87
2022/02/22 07:26:39;;;;;;;13.80;2.47;;;;;;;5.15;98.88;99547.52;3506694;82;98784;-88
2022/02/22 07:31:40;;;;;;;11.73;3.30;;;;;;;5.23;98.34;99571.61;3495931;83;99138;-91
2022/02/22 07:36:41;;;;;;;9.17;3.07;;;;;;;5.28;98.20;99572.66;3495794;79;98894;-88
2022/02/22 07:41:42;;;;;;;10.77;2.60;;;;;;;5.37;98.13;99575.95;3496724;83;98952;-89
2022/02/22 07:46:43;;;;;;;8.23;1.92;;;;;;;5.44;97.82;99582.88;3474265;83;33024;-89
2022/02/22 07:51:44;;;;;;;14.43;2.70;;;;;;;5.49;97.44;99591.58;3440371;84;98245;-94
2022/02/22 07:56:45;;;;;;;10.03;3.45;;;;;;;5.56;96.91;99605.93;3418145;84;99085;-93
2022/02/22 08:01:46;;;;;;;7.23;2.07;;;;;;;5.57;96.64;99605.55;3444051;84;99059;-93
2022/02/22 08:06:47;;;;;;;9.20;2.43;;;;;;;5.59;96.37;99615.54;3443319;84;98775;-89
2022/02/22 08:11:48;;;;;;;7.50;2.20;;;;;;;5.63;96.15;99625.92;3377613;85;98591;-87
2022/02/22 08:16:50;;;;;;;10.57;2.40;;;;;;;5.62;96.02;99637.23;3463053;84;98409;-87
2022/02/22 08:21:51;;;;;;;11.10;2.50;;;;;;;5.60;95.86;99659.98;3441658;84;97547;-90
2022/02/22 08:26:54;;;;;;;17.17;4.70;;;;;;;5.58;95.37;99673.20;3462856;84;98834;-88
2022/02/22 08:31:55;;;;;;;16.60;3.87;;;;;;;5.56;95.19;99674.93;3467153;83;99051;-88
2022/02/22 08:36:56;;;;;;;18.67;3.93;;;;;;;5.51;94.74;99694.33;3466424;82;98949;-88
2022/02/22 08:41:57;;;;;;;15.20;3.67;;;;;;;5.48;94.72;99696.42;3490980;82;99098;-87
2022/02/22 08:46:57;;;;;;;11.33;2.33;;;;;;;5.48;94.26;99705.17;3463792;83;101891;-89
2022/02/22 08:51:58;;;;;;;14.63;3.20;;;;;;;5.51;93.53;99709.33;3471044;82;98820;-86
2022/02/22 08:56:59;;;;;;;14.77;2.87;;;;;;;5.52;93.18;99715.00;3431739;83;98791;-87
2022/02/22 09:02:00;;;;;;;17.17;4.30;;;;;;;5.56;92.70;99721.92;3444449;83;98872;-89
2022/02/22 09:07:01;;;;;;;18.93;4.27;;;;;;;5.56;92.56;99741.80;3448547;83;107334;-87
2022/02/22 09:12:03;;;;;;;18.12;3.40;;;;;;;5.52;93.50;99755.16;3488628;81;99095;-86
2022/02/22 09:17:04;;;;;;;9.67;2.63;;;;;;;5.40;94.77;99768.95;3476704;82;98596;-86
2022/02/22 09:22:05;;;;;;;15.33;2.77;;;;;;;5.38;95.75;99773.96;3487287;83;98524;-88
2022/02/22 09:27:06;;;;;;;18.17;3.37;;;;;;;5.32;96.01;99778.13;3487327;81;98905;-89
2022/02/22 09:32:07;;;;;;;16.27;3.60;;;;;;;5.34;96.06;99783.44;3478925;83;98919;-87
2022/02/22 09:37:08;;;;;;;11.30;3.27;;;;;;;5.37;95.69;99789.56;3475408;80;98814;-87
2022/02/22 09:42:10;;;;;;;19.37;4.13;;;;;;;5.37;95.00;99799.67;3495464;81;98998;-88
2022/02/22 09:47:11;;;;;;;20.92;8.93;;;;;;;5.35;94.50;99797.88;3497520;82;98580;-86
2022/02/22 09:52:12;;;;;;;16.00;4.77;;;;;;;5.34;94.90;99817.55;3484971;83;98846;-86
2022/02/22 09:57:13;;;;;;;19.20;7.67;;;;;;;5.32;94.82;99821.21;3479545;82;98857;-86
2022/02/22 10:02:14;;;;;;;27.23;8.20;;;;;;;5.33;94.72;99827.44;3483923;82;99091;-85
2022/02/22 10:07:16;;;;;;;19.03;3.67;;;;;;;5.38;94.30;99842.98;3481097;83;99017;-85
2022/02/22 10:12:30;;;;;;;15.70;4.10;;;;;;;5.41;93.51;99849.06;3496730;82;99016;-87
2022/02/22 10:17:41;;;;;;;10.20;2.77;;;;;;;5.39;93.63;99870.47;3479484;83;98684;-87
2022/02/22 10:22:50;;;;;;;8.23;2.30;;;;;;;5.38;93.87;99881.17;3497465;82;25872;-85
2022/02/22 10:27:55;;;;;;;6.73;1.67;;;;;;;5.38;93.89;99891.28;3486016;81;98716;-87
2022/02/22 10:32:56;;;;;;;5.23;1.30;;;;;;;5.25;92.45;99909.69;3493020;83;98643;-86
2022/02/22 10:37:58;;;;;;;11.90;2.03;;;;;;;5.16;92.11;99919.21;3487968;83;99009;-87
2022/02/22 10:43:00;;;;;;;6.37;2.00;;;;;;;5.15;92.75;99919.80;3495808;82;98907;-86
2022/02/22 10:48:01;;;;;;;13.10;4.93;;;;;;;5.14;93.10;99920.15;3487170;80;98728;-86
2022/02/22 10:53:10;;;;;;;6.93;1.77;;;;;;;5.31;93.62;99920.58;3525281;82;33299;-85
2022/02/22 10:58:12;;;;;;;9.50;2.47;;;;;;;5.49;93.59;99925.06;3459126;82;98759;-85
2022/02/22 11:03:13;;;;;;;6.03;1.80;;;;;;;5.68;93.62;99931.36;3511467;81;98685;-86
2022/02/22 11:08:15;;;;;;;5.77;1.40;;;;;;;5.81;92.34;99934.23;3485913;82;98712;-86
2022/02/22 11:13:26;;;;;;;12.70;4.70;;;;;;;5.82;91.92;99942.64;3336595;86;98775;-85
2022/02/22 11:18:27;;;;;;;13.70;6.73;;;;;;;5.89;90.80;99950.20;3407706;82;98599;-85
2022/02/22 11:23:29;;;;;;;16.80;7.37;;;;;;;5.88;90.51;99958.16;3421671;85;98847;-87
2022/02/22 11:28:41;;;;;;;3.60;1.47;;;;;;;5.87;90.87;99969.67;3298387;85;98541;-85
2022/02/22 11:33:51;;;;;;;4.80;1.60;;;;;;;5.93;90.00;99983.82;3326170;85;99041;-86
2022/02/22 11:38:53;;;;;;;5.70;1.70;;;;;;;5.94;90.84;99993.63;3371046;86;98579;-86
2022/02/22 11:44:04;;;;;;;6.33;2.07;;;;;;;5.99;89.99;100005.05;3332486;86;98961;-83
2022/02/22 11:49:08;;;;;;;5.70;1.47;;;;;;;6.03;89.85;100005.92;3385053;85;98877;-87
2022/02/22 11:54:23;;;;;;;3.73;1.87;;;;;;;6.02;89.52;100007.64;3345203;86;98879;-86
2022/02/22 11:59:24;;;;;;;5.70;1.87;;;;;;;6.00;89.21;100024.97;3365267;85;98496;-88
2022/02/22 12:04:29;;;;;;;5.27;1.73;;;;;;;6.08;88.16;100037.06;3435079;84;98637;-86
2022/02/22 12:09:37;;;;;;;5.17;1.33;;;;;;;6.16;87.92;100031.19;3439056;82;98835;-85
2022/02/22 12:14:43;;;;;;;9.53;2.00;;;;;;;6.24;87.24;100023.34;3441973;81;99082;-86
2022/02/22 12:19:55;;;;;;;7.65;2.15;;;;;;;6.23;84.97;100029.38;3421827;84;98931;-90
2022/02/22 12:25:03;;;;;;;6.57;1.50;;;;;;;6.28;84.34;100036.52;3429108;81;98810;-85
2022/02/22 12:30:05;;;;;;;3.10;1.15;;;;;;;6.32;83.86;100050.47;3426596;84;98962;-87
2022/02/22 12:35:08;;;;;;;4.83;1.30;;;;;;;6.27;82.54;100063.05;3432882;84;26662;-84
2022/02/22 12:40:17;;;;;;;5.90;1.40;;;;;;;6.21;83.38;100063.11;3432246;83;98818;-86
2022/02/22 12:45:17;;;;;;;9.93;2.20;;;;;;;6.25;82.71;100061.81;3426863;84;98891;-86
2022/02/22 12:50:22;;;;;;;5.57;1.93;;;;;;;6.32;82.70;100085.22;3439892;84;98682;-88
2022/02/22 12:55:22;;;;;;;6.67;1.67;;;;;;;6.39;82.67;100090.84;3449364;84;98970;-86
2022/02/22 13:00:23;;;;;;;5.53;1.60;;;;;;;6.39;82.97;100097.08;3438934;83;98937;-86
2022/02/22 13:05:24;;;;;;;5.30;1.33;;;;;;;6.31;82.61;100101.37;3439477;84;33269;-86
2022/02/22 13:10:26;;;;;;;5.53;1.47;;;;;;;6.21;82.94;100108.19;3437398;84;98620;-84
2022/02/22 13:15:27;;;;;;;6.00;1.83;;;;;;;6.23;82.77;100115.45;3444654;84;98966;-83
2022/02/22 13:20:38;;;;;;;5.10;1.50;;;;;;;6.24;82.17;100113.52;3454151;84;98997;-85
2022/02/22 13:25:46;;;;;;;4.83;1.43;;;;;;;6.23;80.78;100125.61;3465963;84;99132;-84
2022/02/22 13:30:47;;;;;;;6.90;1.40;;;;;;;6.14;79.02;100115.42;3455605;83;99092;-84
2022/02/22 13:36:04;;;;;;;9.18;1.47;;;;;;;6.13;78.37;100117.95;3461038;84;98893;-86
2022/02/22 13:41:13;;;;;;;5.50;1.07;;;;;;;6.18;78.23;100121.77;3452525;84;98186;-85
2022/02/22 13:46:14;;;;;;;4.33;1.23;;;;;;;6.24;77.94;100121.72;3464010;84;98755;-86
2022/02/22 13:51:15;;;;;;;6.23;1.43;;;;;;;6.33;78.93;100123.10;3439964;83;99034;-84
2022/02/22 13:56:15;;;;;;;7.67;1.67;;;;;;;6.38;78.25;100124.78;3439189;84;99111;-84
2022/02/22 14:01:17;;;;;;;7.83;1.80;;;;;;;6.38;78.68;100131.03;3431466;82;99281;-85
2022/02/22 14:06:17;;;;;;;11.83;4.37;;;;;;;6.31;79.06;100128.70;3436261;84;99185;-85
2022/02/22 14:11:18;;;;;;;15.87;6.20;;;;;;;6.30;78.84;100132.59;3429224;84;98899;-84
2022/02/22 14:16:19;;;;;;;6.08;2.60;;;;;;;6.30;79.03;100138.86;3437914;83;98862;-87
2022/02/22 14:21:22;;;;;;;6.47;1.73;;;;;;;6.28;78.75;100142.50;3437843;84;98382;-87
2022/02/22 14:26:23;;;;;;;10.80;3.67;;;;;;;6.24;78.22;100137.55;3444811;83;98820;-85
2022/02/22 14:31:24;;;;;;;13.47;4.07;;;;;;;6.21;77.48;100147.03;3429778;84;98729;-83
2022/02/22 14:36:28;;;;;;;9.10;2.20;;;;;;;6.18;76.77;100155.37;3428849;84;99097;-83
2022/02/22 14:41:29;;;;;;;9.70;2.60;;;;;;;6.21;76.53;100156.59;3423928;84;98722;-86
2022/02/22 14:46:31;;;;;;;9.97;2.80;;;;;;;6.19;75.74;100162.41;3437498;84;33314;-84
2022/02/22 14:51:32;;;;;;;18.30;4.30;;;;;;;6.08;75.67;100162.73;3441859;82;98390;-85
2022/02/22 14:56:33;;;;;;;16.50;3.77;;;;;;;5.96;76.70;100163.38;3437916;84;98803;-85
2022/02/22 15:01:34;;;;;;;8.00;3.10;;;;;;;5.82;77.48;100169.84;3438876;84;99199;-83
2022/02/22 15:06:35;;;;;;;9.43;2.40;;;;;;;5.75;78.60;100180.56;3442357;83;98875;-86
2022/02/22 15:11:37;;;;;;;17.63;4.53;;;;;;;5.68;79.08;100187.20;3456865;84;99044;-84
2022/02/22 15:16:40;;;;;;;11.03;3.83;;;;;;;5.61;79.39;100195.98;3462599;83;34422;-86
2022/02/22 15:21:41;;;;;;;11.30;4.17;;;;;;;5.56;79.60;100183.95;3425995;84;98876;-85
2022/02/22 15:26:44;;;;;;;8.53;2.37;;;;;;;5.53;80.03;100186.03;3445965;84;98884;-85
2022/02/22 15:31:45;;;;;;;15.03;4.57;;;;;;;5.47;80.38;100188.80;3440025;84;98850;-85
2022/02/22 15:36:46;;;;;;;21.70;6.27;;;;;;;5.42;80.77;100190.41;3455042;84;99064;-87
2022/02/22 15:41:46;;;;;;;11.33;3.00;;;;;;;5.39;81.66;100203.94;3468742;84;99109;-86
2022/02/22 15:46:47;;;;;;;8.83;3.47;;;;;;;5.38;82.61;100200.98;3445868;84;102188;-86
2022/02/22 15:51:48;;;;;;;7.87;2.80;;;;;;;5.35;83.59;100218.84;3420104;84;99176;-86
2022/02/22 15:56:52;;;;;;;9.67;3.10;;;;;;;5.31;84.09;100221.27;3428431;84;98434;-86
2022/02/22 16:01:52;;;;;;;8.03;2.72;;;;;;;5.25;84.68;100221.29;3472248;83;98926;-85
2022/02/22 16:06:53;;;;;;;13.03;4.00;;;;;;;5.19;85.26;100214.49;3465794;84;98822;-85
2022/02/22 16:11:57;;;;;;;12.83;3.77;;;;;;;5.16;85.94;100224.16;3473439;82;99197;-85
2022/02/22 16:16:59;;;;;;;11.90;4.57;;;;;;;5.09;86.50;100213.05;3446565;84;98650;-85
2022/02/22 16:22:00;;;;;;;11.80;4.27;;;;;;;5.04;86.69;100208.39;3450859;84;98729;-86
2022/02/22 16:27:01;;;;;;;13.53;3.87;;;;;;;4.95;87.05;100215.34;3440237;84;98738;-86
2022/02/22 16:32:08;;;;;;;18.97;4.60;;;;;;;4.90;87.28;100212.86;3451203;84;98756;-87
2022/02/22 16:37:09;;;;;;;;;;;;;;;4.86;87.58;100213.90;3443509;83;99113;-84
2022/02/22 16:42:10;;;;;;;12.83;4.37;;;;;;;4.79;87.93;100209.57;3462267;82;84942;-84
2022/02/22 16:47:11;;;;;;;11.37;4.33;;;;;;;4.75;87.69;100205.38;3462205;83;98660;-84
2022/02/22 16:52:12;;;;;;;12.50;3.07;;;;;;;4.70;87.97;100211.06;3452570;84;98893;-84
2022/02/22 16:57:13;;;;;;;9.83;3.60;;;;;;;4.66;87.96;100216.19;3448791;84;98837;-86
2022/02/22 17:02:13;;;;;;;13.60;3.47;;;;;;;4.63;88.14;100211.44;3470179;83;98906;-85
2022/02/22 17:07:14;;;;;;;15.63;4.37;;;;;;;4.60;88.14;100204.74;3468118;83;98728;-84
2022/02/22 17:12:17;;;;;;;15.40;5.83;;;;;;;4.60;88.14;100204.74;3451639;83;99147;-87
2022/02/22 17:17:19;;;;;;;19.47;8.17;;;;;;;4.57;88.35;100206.78;3440349;83;98675;-86
2022/02/22 17:22:23;;;;;;;26.52;11.30;;;;;;;4.53;88.50;100198.28;3424936;84;98701;-90
2022/02/22 17:27:23;;;;;;;35.07;12.97;;;;;;;4.46;88.73;100196.11;3434765;84;98887;-91
2022/02/22 17:32:25;;;;;;;22.70;10.00;;;;;;;4.41;89.08;100200.43;3445567;84;99386;-90
2022/02/22 17:37:27;;;;;;;27.98;11.12;;;;;;;4.36;89.22;100210.19;3425629;83;98806;-92
2022/02/22 17:42:28;;;;;;;41.67;16.43;;;;;;;4.28;89.55;100207.03;3452933;84;99297;-92
2022/02/22 17:47:29;;;;;;;24.90;9.00;;;;;;;4.23;89.86;100204.52;3439058;84;99309;-91
2022/02/22 17:52:31;;;;;;;18.60;5.70;;;;;;;4.20;90.18;100212.59;3464378;84;33817;-92
2022/02/22 17:57:32;;;;;;;11.80;4.77;;;;;;;4.17;90.44;100220.87;3448442;83;98942;-91
2022/02/22 18:02:38;;;;;;;11.33;4.58;;;;;;;4.11;90.87;100217.33;3474277;83;99068;-93
2022/02/22 18:07:45;;;;;;;18.32;6.90;;;;;;;4.05;91.19;100221.41;3460522;83;99041;-91
2022/02/22 18:12:50;;;;;;;;;;;;;;;4.04;91.61;100215.16;3429914;84;99125;-91
2022/02/22 18:17:53;;;;;;;24.82;8.95;;;;;;;4.02;92.36;100217.44;3445496;84;85090;-91
2022/02/22 18:22:53;;;;;;;19.60;8.00;;;;;;;4.00;91.97;100218.91;3426965;84;26290;-90
2022/02/22 18:27:55;;;;;;;22.48;8.90;;;;;;;4.00;92.14;100208.83;3438641;83;98790;-90
2022/02/22 18:32:57;;;;;;;29.00;12.63;;;;;;;3.98;92.14;100204.85;3453120;84;98883;-92
2022/02/22 18:37:58;;;;;;;34.00;13.13;;;;;;;3.99;92.19;100207.80;3439708;84;99403;-92
2022/02/22 18:42:59;;;;;;;38.37;13.90;;;;;;;3.99;92.17;100203.71;3438428;84;99196;-92
2022/02/22 18:48:00;;;;;;;45.90;18.73;;;;;;;3.98;92.16;100192.02;3439379;83;99261;-91
2022/02/22 18:53:01;;;;;;;37.83;15.20;;;;;;;3.94;92.45;100191.09;3438428;84;33271;-91
2022/02/22 18:58:04;;;;;;;33.87;14.43;;;;;;;3.91;92.43;100199.15;3436372;84;98927;-92
2022/02/22 19:03:06;;;;;;;36.27;13.77;;;;;;;3.87;92.52;100192.23;3428096;84;99067;-91
2022/02/22 19:08:07;;;;;;;35.28;14.18;;;;;;;3.84;92.56;100188.84;3440070;83;99297;-93
2022/02/22 19:13:08;;;;;;;39.13;15.50;;;;;;;3.80;92.70;100178.94;3444284;84;99284;-92
2022/02/22 19:18:10;;;;;;;45.50;17.82;;;;;;;3.76;92.86;100179.41;3440236;84;98787;-93
2022/02/22 19:23:12;;;;;;;37.27;16.10;;;;;;;3.73;93.01;100186.88;3471321;82;33529;-92
2022/02/22 19:28:16;;;;;;;34.65;14.93;;;;;;;3.68;93.00;100191.98;3412433;83;99298;-93
2022/02/22 19:33:16;;;;;;;45.90;18.70;;;;;;;3.66;93.17;100191.50;3451014;84;98619;-92
2022/02/22 19:38:23;;;;;;;43.73;17.40;;;;;;;3.66;93.31;100192.08;3440208;82;99179;-94
2022/02/22 19:43:24;;;;;;;56.03;20.57;;;;;;;3.65;93.32;100190.50;3386567;84;98791;-91
2022/02/22 19:48:28;;;;;;;47.90;20.75;;;;;;;3.64;93.45;100186.97;3419278;84;99115;-91
2022/02/22 19:53:29;;;;;;;51.10;20.87;;;;;;;3.63;93.33;100185.39;3465521;83;99309;-91
2022/02/22 19:58:29;;;;;;;48.93;20.07;;;;;;;3.64;93.34;100180.72;3487282;83;98816;-93
2022/02/22 20:03:31;;;;;;;51.70;19.73;;;;;;;3.63;93.22;100185.39;3493529;83;99079;-92
2022/02/22 20:08:32;;;;;;;46.60;18.47;;;;;;;3.64;93.12;100182.89;3514554;81;98973;-92
2022/02/22 20:13:35;;;;;;;48.67;18.77;;;;;;;3.65;93.15;100176.31;3498539;83;99075;-92
2022/02/22 20:18:38;;;;;;;49.67;20.05;;;;;;;3.66;92.93;100179.25;3492798;82;99181;-91
2022/02/22 20:23:39;;;;;;;61.67;23.03;;;;;;;3.66;92.93;100169.73;3494464;83;99323;-91
2022/02/22 20:28:41;;;;;;;62.27;23.37;;;;;;;3.67;92.80;100160.43;3496474;82;98937;-90
2022/02/22 20:33:42;;;;;;;70.63;23.73;;;;;;;3.68;92.76;100159.32;3506469;82;99038;-91
2022/02/22 20:38:43;;;;;;;53.70;18.83;;;;;;;3.69;92.57;100151.94;3487463;83;99342;-93
2022/02/22 20:43:46;;;;;;;45.73;17.23;;;;;;;3.69;92.51;100143.77;3517045;82;99334;-94
2022/02/22 20:48:46;;;;;;;38.80;12.97;;;;;;;3.70;92.60;100146.16;3487187;83;99159;-92
2022/02/22 20:53:47;;;;;;;25.43;10.63;;;;;;;3.71;92.45;100132.00;3465095;83;99125;-91
2022/02/22 20:58:48;;;;;;;33.03;11.53;;;;;;;3.71;92.67;100125.20;3444260;84;98919;-91
2022/02/22 21:03:54;;;;;;;32.53;11.37;;;;;;;3.73;92.50;100106.03;3447601;84;99134;-92
2022/02/22 21:08:53;;;;;;;29.13;8.93;;;;;;;3.75;92.51;100106.48;3444180;83;98895;-92
2022/02/22 21:13:54;;;;;;;27.80;9.77;;;;;;;3.77;92.52;100103.43;3445579;84;99122;-93
2022/02/22 21:18:56;;;;;;;31.37;9.33;;;;;;;3.79;92.52;100091.63;3438800;83;99101;-92
2022/02/22 21:23:59;;;;;;;26.53;8.37;;;;;;;3.81;92.40;100084.70;3450609;84;99181;-94
2022/02/22 21:29:01;;;;;;;27.40;8.75;;;;;;;3.84;92.18;100080.52;3448891;83;98665;-92
2022/02/22 21:34:05;;;;;;;30.37;8.87;;;;;;;3.86;92.05;100079.59;3419957;84;97762;-92
2022/02/22 21:39:07;;;;;;;29.00;9.80;;;;;;;3.88;91.88;100065.09;3441536;83;98419;-94
2022/02/22 21:44:09;;;;;;;33.60;10.57;;;;;;;3.89;91.61;100073.48;3426765;84;97888;-95
2022/02/22 21:49:11;;;;;;;31.97;9.33;;;;;;;3.92;91.35;100072.23;3441087;84;98926;-93
2022/02/22 21:54:13;;;;;;;31.53;10.03;;;;;;;3.96;91.36;100066.89;3456177;84;98713;-95
2022/02/22 21:59:19;;;;;;;27.23;10.57;;;;;;;4.00;91.23;100065.08;3453768;83;98746;-92
2022/02/22 22:04:20;;;;;;;32.90;8.37;;;;;;;4.02;91.42;100058.16;3427366;84;97765;-93
2022/02/22 22:09:23;;;;;;;27.10;8.60;;;;;;;4.04;91.40;100046.93;3437547;84;98763;-95
2022/02/22 22:14:24;;;;;;;31.37;9.37;;;;;;;4.06;91.46;100033.76;3447386;84;97918;-93
2022/02/22 22:19:26;;;;;;;27.93;8.63;;;;;;;4.05;91.45;100023.42;3441214;84;98645;-92
2022/02/22 22:24:31;;;;;;;28.73;8.07;;;;;;;4.08;91.49;100020.58;3448043;83;98704;-92
2022/02/22 22:29:32;;;;;;;25.00;7.95;;;;;;;4.09;91.72;100003.91;3422625;84;98641;-89
2022/02/22 22:34:33;;;;;;;29.20;7.53;;;;;;;4.12;91.61;100005.15;3436493;84;33781;-95
2022/02/22 22:39:34;;;;;;;23.37;7.50;;;;;;;4.13;91.66;99985.75;3438934;84;98680;-93
2022/02/22 22:44:35;;;;;;;23.13;6.70;;;;;;;4.16;91.81;99976.09;3447642;84;98603;-91
2022/02/22 22:49:35;;;;;;;25.30;7.67;;;;;;;4.17;92.10;99973.59;3449071;83;98511;-90
2022/02/22 22:54:36;;;;;;;22.30;6.60;;;;;;;4.18;92.70;99974.62;3454465;84;98542;-92
2022/02/22 22:59:37;;;;;;;20.17;6.63;;;;;;;4.17;93.44;99972.23;3457973;83;98708;-94
2022/02/22 23:04:38;;;;;;;26.07;8.03;;;;;;;4.16;94.63;99958.41;3451209;84;31900;-89
2022/02/22 23:14:59;;;;;;;20.87;6.43;;;;;;;4.07;97.12;99939.48;3458549;83;98278;-87
2022/02/22 23:20:00;;;;;;;23.13;6.53;;;;;;;4.01;98.27;99938.14;3456977;83;98458;-90
2022/02/22 23:25:01;;;;;;;20.43;6.63;;;;;;;3.98;98.91;99930.66;3467979;83;98424;-89
2022/02/22 23:30:03;;;;;;;17.70;6.03;;;;;;;3.99;99.42;99921.34;3459255;82;98534;-89
2022/02/22 23:35:05;;;;;;;24.87;6.50;;;;;;;3.98;100.00;99914.31;3451676;84;33195;-89
2022/02/22 23:40:08;;;;;;;20.60;5.60;;;;;;;3.96;100.00;99902.99;3436551;84;98959;-89
2022/02/22 23:45:09;;;;;;;25.67;8.77;;;;;;;3.96;100.00;99898.10;3434548;83;98543;-89